^^
Saratoga-Weather Station Historical Data
Daily Summary for July 31, 2020 Units:  Metric    English   Both
Daily Weekly Monthly Yearly Custom
  High: Low: Average:
Temperature: 4.3 °C 1.3 °C 2.7 °C
Dew Point: 3.4 °C 0.6 °C 1.8 °C
Humidity: 96% 91% 94%
Wind Speed: 11.1km/h 0km/h 2.9km/h
Wind Gust: 14.5km/h - -
Wind- - SE
Pressure: 1006.1 hPa 1000.3 hPa -
Precipitation: 5.1 mm    
Historical Graphs
 
 
Tabular Data for July 31, 2020
Time Temperature Dew Point Pressure Wind Wind Speed Wind Gust Humidity Rainfall Rate (Hourly) solar
00:03 2.9 °C 1.9 °C 1006.1 hPa Calm     93% 0.0 mm 0 W/m2
00:08 2.9 °C 1.9 °C 1006.1 hPa WNW 3.2 km/h 4.8 km/h 93% 0.0 mm 0 W/m2
00:13 2.9 °C 1.9 °C 1006.1 hPa Calm   4.8 km/h 93% 0.0 mm 0 W/m2
00:18 2.9 °C 1.9 °C 1006.1 hPa NW 6.4 km/h 6.4 km/h 93% 0.0 mm 0 W/m2
00:23 2.9 °C 1.9 °C 1005.8 hPa NW 1.4 km/h 3.2 km/h 93% 0.0 mm 0 W/m2
00:28 2.9 °C 1.7 °C 1005.8 hPa NNW 3.2 km/h 4.8 km/h 92% 0.0 mm 0 W/m2
00:33 2.9 °C 1.7 °C 1005.8 hPa NNE 1.4 km/h 4.8 km/h 92% 0.0 mm 0 W/m2
00:38 2.9 °C 1.7 °C 1006.1 hPa Calm   6.4 km/h 92% 0.0 mm 0 W/m2
00:43 2.9 °C 1.7 °C 1005.8 hPa NE 1.4 km/h 6.4 km/h 92% 0.0 mm 0 W/m2
00:48 2.9 °C 1.7 °C 1005.8 hPa ENE 3.2 km/h 4.8 km/h 92% 0.0 mm 0 W/m2
00:53 2.9 °C 1.7 °C 1005.8 hPa NNW 4.7 km/h 4.8 km/h 92% 0.0 mm 0 W/m2
00:58 2.9 °C 1.7 °C 1005.8 hPa WSW 1.4 km/h 8 km/h 92% 0.0 mm 0 W/m2
01:03 2.9 °C 1.7 °C 1005.8 hPa NNW 3.2 km/h 6.4 km/h 92% 0.0 mm 0 W/m2
01:08 2.9 °C 1.7 °C 1005.8 hPa Calm   3.2 km/h 92% 0.0 mm 0 W/m2
01:13 2.9 °C 1.7 °C 1005.4 hPa WNW 3.2 km/h 8 km/h 92% 0.0 mm 0 W/m2
01:18 2.9 °C 1.7 °C 1005.4 hPa ENE 1.4 km/h 9.7 km/h 92% 0.0 mm 0 W/m2
01:23 2.9 °C 1.6 °C 1005.4 hPa NNW 1.4 km/h 3.2 km/h 91% 0.0 mm 0 W/m2
01:28 2.9 °C 1.6 °C 1005.4 hPa NE 3.2 km/h 9.7 km/h 91% 0.0 mm 0 W/m2
01:33 2.9 °C 1.6 °C 1005.4 hPa ENE 1.4 km/h 3.2 km/h 91% 0.0 mm 0 W/m2
01:39 2.9 °C 1.7 °C 1005.4 hPa East 1.4 km/h 6.4 km/h 92% 0.0 mm 0 W/m2
01:44 2.8 °C 1.6 °C 1005.4 hPa North 1.4 km/h 4.8 km/h 92% 0.0 mm 0 W/m2
01:49 2.8 °C 1.6 °C 1005.1 hPa NE 3.2 km/h 8 km/h 92% 0.0 mm 0 W/m2
01:54 2.7 °C 1.5 °C 1005.1 hPa ENE 3.2 km/h 6.4 km/h 92% 0.2 mm 0 W/m2
01:59 2.6 °C 1.4 °C 1005.1 hPa NNE 3.2 km/h 8 km/h 92% 0.5 mm 0 W/m2
02:04 2.6 °C 1.4 °C 1005.1 hPa Calm   3.2 km/h 92% 0.5 mm 0 W/m2
02:09 2.5 °C 1.5 °C 1004.7 hPa ENE 3.2 km/h 6.4 km/h 93% 0.5 mm 0 W/m2
02:14 2.5 °C 1.5 °C 1004.7 hPa Calm   3.2 km/h 93% 0.5 mm 0 W/m2
02:19 2.4 °C 1.4 °C 1004.7 hPa Calm   1.6 km/h 93% 0.5 mm 0 W/m2
02:24 2.5 °C 1.5 °C 1004.7 hPa NE 1.4 km/h 4.8 km/h 93% 0.5 mm 0 W/m2
02:29 2.5 °C 1.5 °C 1004.7 hPa Calm   3.2 km/h 93% 0.5 mm 0 W/m2
02:34 2.5 °C 1.5 °C 1004.7 hPa NNE 3.2 km/h 4.8 km/h 93% 0.5 mm 0 W/m2
02:39 2.6 °C 1.6 °C 1004.7 hPa NE 1.4 km/h 4.8 km/h 93% 0.5 mm 0 W/m2
02:44 2.6 °C 1.6 °C 1004.7 hPa NNE 1.4 km/h 3.2 km/h 93% 0.5 mm 0 W/m2
02:49 2.6 °C 1.6 °C 1004.7 hPa East 3.2 km/h 4.8 km/h 93% 0.5 mm 0 W/m2
02:54 2.6 °C 1.6 °C 1004.4 hPa NE 3.2 km/h 6.4 km/h 93% 0.2 mm 0 W/m2
02:59 2.6 °C 1.6 °C 1004.4 hPa ENE 3.2 km/h 6.4 km/h 93% 0.0 mm 0 W/m2
03:04 2.6 °C 1.6 °C 1004.4 hPa NE 4.7 km/h 4.8 km/h 93% 0.0 mm 0 W/m2
03:09 2.6 °C 1.6 °C 1004.4 hPa NE 1.4 km/h 4.8 km/h 93% 0.0 mm 0 W/m2
03:14 2.7 °C 1.7 °C 1004.4 hPa ENE 1.4 km/h 6.4 km/h 93% 0.0 mm 0 W/m2
03:19 2.7 °C 1.7 °C 1004.4 hPa ENE 1.4 km/h 6.4 km/h 93% 0.0 mm 0 W/m2
03:24 2.7 °C 1.7 °C 1004.4 hPa ESE 1.4 km/h 6.4 km/h 93% 0.0 mm 0 W/m2
03:29 2.6 °C 1.6 °C 1004.4 hPa SE 3.2 km/h 3.2 km/h 93% 0.0 mm 0 W/m2
03:34 2.6 °C 1.6 °C 1004.1 hPa ENE 1.4 km/h 6.4 km/h 93% 0.0 mm 0 W/m2
03:39 2.6 °C 1.6 °C 1004.1 hPa Calm   4.8 km/h 93% 0.0 mm 0 W/m2
03:44 2.6 °C 1.6 °C 1004.1 hPa Calm   6.4 km/h 93% 0.0 mm 0 W/m2
03:49 2.6 °C 1.6 °C 1004.1 hPa Calm   4.8 km/h 93% 0.0 mm 0 W/m2
03:54 2.6 °C 1.6 °C 1004.1 hPa NE 1.4 km/h 1.6 km/h 93% 0.0 mm 0 W/m2
03:59 2.6 °C 1.6 °C 1004.1 hPa Calm   3.2 km/h 93% 0.0 mm 0 W/m2
04:04 2.6 °C 1.6 °C 1004.1 hPa Calm   3.2 km/h 93% 0.0 mm 0 W/m2
04:09 2.6 °C 1.6 °C 1004.1 hPa East 1.4 km/h 4.8 km/h 93% 0.2 mm 0 W/m2
04:14 2.5 °C 1.5 °C 1003.7 hPa East 1.4 km/h 9.7 km/h 93% 0.2 mm 0 W/m2
04:19 2.4 °C 1.4 °C 1003.7 hPa ENE 6.4 km/h 6.4 km/h 93% 0.5 mm 0 W/m2
04:24 2.4 °C 1.4 °C 1003.7 hPa East 3.2 km/h 9.7 km/h 93% 0.5 mm 0 W/m2
04:29 2.4 °C 1.4 °C 1003.7 hPa East 1.4 km/h 4.8 km/h 93% 0.5 mm 0 W/m2
04:34 2.4 °C 1.4 °C 1003.4 hPa Calm   4.8 km/h 93% 0.5 mm 0 W/m2
04:39 2.4 °C 1.4 °C 1003.4 hPa East 3.2 km/h 4.8 km/h 93% 0.5 mm 0 W/m2
04:44 2.4 °C 1.4 °C 1003.4 hPa Calm   1.6 km/h 93% 0.5 mm 0 W/m2
04:49 2.4 °C 1.4 °C 1003.4 hPa ENE 4.7 km/h 9.7 km/h 93% 0.5 mm 0 W/m2
04:54 2.4 °C 1.4 °C 1003.0 hPa NE 1.4 km/h 4.8 km/h 93% 0.5 mm 0 W/m2
04:59 2.4 °C 1.4 °C 1003.0 hPa ENE 3.2 km/h 8 km/h 93% 0.5 mm 0 W/m2
05:04 2.4 °C 1.2 °C 1003.0 hPa East 6.4 km/h 11.3 km/h 92% 0.5 mm 0 W/m2
05:09 2.3 °C 1.1 °C 1003.0 hPa SE 3.2 km/h 6.4 km/h 92% 0.5 mm 0 W/m2
05:14 2.3 °C 1.3 °C 1003.0 hPa East 3.2 km/h 4.8 km/h 93% 0.5 mm 0 W/m2
05:19 2.2 °C 1.2 °C 1002.7 hPa ENE 3.2 km/h 4.8 km/h 93% 0.5 mm 0 W/m2
05:24 2.2 °C 1.2 °C 1002.7 hPa East 3.2 km/h 6.4 km/h 93% 0.5 mm 0 W/m2
05:29 2.1 °C 1.1 °C 1002.4 hPa ENE 3.2 km/h 11.3 km/h 93% 0.5 mm 0 W/m2
05:34 2 °C 1 °C 1002.4 hPa Calm   3.2 km/h 93% 0.5 mm 0 W/m2
05:39 2 °C 1.1 °C 1002.4 hPa ESE 4.7 km/h 4.8 km/h 94% 0.5 mm 0 W/m2
05:44 1.9 °C 1 °C 1002.4 hPa ESE 1.4 km/h 4.8 km/h 94% 0.5 mm 0 W/m2
05:49 1.9 °C 1 °C 1002.0 hPa East 3.2 km/h 6.4 km/h 94% 0.5 mm 0 W/m2
05:54 1.9 °C 1 °C 1002.4 hPa ENE 4.7 km/h 6.4 km/h 94% 0.5 mm 0 W/m2
05:59 1.8 °C 0.9 °C 1002.0 hPa ENE 1.4 km/h 9.7 km/h 94% 0.5 mm 0 W/m2
06:04 1.8 °C 0.9 °C 1002.0 hPa SE 4.7 km/h 4.8 km/h 94% 0.5 mm 0 W/m2
06:09 1.8 °C 0.9 °C 1002.0 hPa NE 3.2 km/h 8 km/h 94% 0.5 mm 0 W/m2
06:14 1.8 °C 1.1 °C 1002.0 hPa NE 4.7 km/h 4.8 km/h 95% 0.5 mm 0 W/m2
06:19 1.9 °C 1.2 °C 1002.0 hPa NE 3.2 km/h 3.2 km/h 95% 0.5 mm 0 W/m2
06:24 1.9 °C 1.2 °C 1002.0 hPa North 3.2 km/h 6.4 km/h 95% 0.5 mm 0 W/m2
06:29 1.9 °C 1.2 °C 1002.0 hPa NE 3.2 km/h 4.8 km/h 95% 0.2 mm 0 W/m2
06:34 1.9 °C 1.2 °C 1002.0 hPa ENE 4.7 km/h 4.8 km/h 95% 0.2 mm 0 W/m2
06:39 1.9 °C 1.2 °C 1002.0 hPa NE 3.2 km/h 11.3 km/h 95% 0.2 mm 0 W/m2
06:44 1.8 °C 1.1 °C 1002.0 hPa Calm   12.9 km/h 95% 0.5 mm 0 W/m2
06:49 1.7 °C 0.8 °C 1001.7 hPa ESE 1.4 km/h 4.8 km/h 94% 0.5 mm 0 W/m2
06:54 1.7 °C 0.8 °C 1002.0 hPa East 3.2 km/h 9.7 km/h 94% 0.8 mm 0 W/m2
06:59 1.7 °C 0.8 °C 1002.0 hPa NNE 6.4 km/h 8 km/h 94% 0.8 mm 0 W/m2
07:04 1.7 °C 1 °C 1002.0 hPa North 1.4 km/h 9.7 km/h 95% 0.8 mm 0 W/m2
07:09 1.7 °C 1 °C 1002.0 hPa NE 4.7 km/h 11.3 km/h 95% 0.5 mm 0 W/m2
07:14 1.8 °C 1.1 °C 1002.0 hPa ENE 3.2 km/h 9.7 km/h 95% 0.8 mm 0 W/m2
07:19 1.8 °C 0.9 °C 1002.0 hPa NNE 6.4 km/h 6.4 km/h 94% 0.8 mm 0 W/m2
07:24 1.8 °C 0.9 °C 1002.0 hPa NE 6.4 km/h 9.7 km/h 94% 0.8 mm 0 W/m2
07:29 1.8 °C 0.9 °C 1001.7 hPa ENE 4.7 km/h 6.4 km/h 94% 0.8 mm 0 W/m2
07:34 1.8 °C 0.9 °C 1001.7 hPa NE 6.4 km/h 9.7 km/h 94% 0.8 mm 0 W/m2
07:39 1.8 °C 1.1 °C 1001.7 hPa East 3.2 km/h 9.7 km/h 95% 0.8 mm 0 W/m2
07:44 1.8 °C 1.1 °C 1001.7 hPa East 4.7 km/h 9.7 km/h 95% 0.8 mm 0 W/m2
07:49 1.8 °C 1.1 °C 1001.7 hPa ENE 4.7 km/h 12.9 km/h 95% 0.5 mm 0 W/m2
07:54 1.8 °C 1.1 °C 1001.7 hPa NE 3.2 km/h 6.4 km/h 95% 0.5 mm 0 W/m2
07:59 1.8 °C 1.1 °C 1001.7 hPa ESE 4.7 km/h 12.9 km/h 95% 0.5 mm 0 W/m2
08:04 1.8 °C 1.1 °C 1001.7 hPa East 4.7 km/h 8 km/h 95% 0.5 mm 0 W/m2
08:09 1.8 °C 1.1 °C 1001.7 hPa ESE 1.4 km/h 9.7 km/h 95% 0.5 mm 0 W/m2
08:14 1.8 °C 1.1 °C 1001.7 hPa ENE 3.2 km/h 8 km/h 95% 0.5 mm 0 W/m2
08:19 1.7 °C 1 °C 1001.7 hPa East 3.2 km/h 12.9 km/h 95% 0.5 mm 0 W/m2
08:24 1.7 °C 1 °C 1001.7 hPa ENE 1.4 km/h 9.7 km/h 95% 0.5 mm 0 W/m2
08:29 1.6 °C 0.9 °C 1001.7 hPa East 1.4 km/h 11.3 km/h 95% 0.8 mm 0 W/m2
08:34 1.5 °C 0.8 °C 1001.7 hPa East 1.4 km/h 3.2 km/h 95% 1.0 mm 0 W/m2
08:39 1.5 °C 0.8 °C 1002.0 hPa NE 6.4 km/h 6.4 km/h 95% 1.0 mm 0 W/m2
08:44 1.4 °C 0.7 °C 1002.0 hPa NE 3.2 km/h 4.8 km/h 95% 0.8 mm 0 W/m2
08:49 1.4 °C 0.7 °C 1001.7 hPa NE 3.2 km/h 4.8 km/h 95% 1.0 mm 0 W/m2
08:54 1.4 °C 0.7 °C 1001.7 hPa NE 1.4 km/h 6.4 km/h 95% 1.0 mm 0 W/m2
08:59 1.3 °C 0.6 °C 1001.7 hPa ENE 4.7 km/h 4.8 km/h 95% 1.3 mm 0 W/m2
09:04 1.3 °C 0.6 °C 1001.7 hPa NE 3.2 km/h 6.4 km/h 95% 1.3 mm 0 W/m2
09:09 1.3 °C 0.6 °C 1001.7 hPa North 3.2 km/h 4.8 km/h 95% 1.3 mm 0 W/m2
09:14 1.4 °C 0.7 °C 1001.7 hPa ENE 4.7 km/h 6.4 km/h 95% 1.3 mm 0 W/m2
09:19 1.4 °C 0.7 °C 1001.7 hPa East 4.7 km/h 6.4 km/h 95% 1.0 mm 0 W/m2
09:24 1.5 °C 0.8 °C 1001.7 hPa ENE 1.4 km/h 9.7 km/h 95% 1.0 mm 0 W/m2
09:29 1.4 °C 0.7 °C 1001.7 hPa East 3.2 km/h 3.2 km/h 95% 1.0 mm 0 W/m2
09:34 1.4 °C 0.7 °C 1001.7 hPa NE 1.4 km/h 9.7 km/h 95% 0.8 mm 5 W/m2
09:39 1.3 °C 0.6 °C 1001.7 hPa ENE 1.4 km/h 6.4 km/h 95% 1.0 mm 9 W/m2
09:44 1.3 °C 0.6 °C 1001.7 hPa ENE 4.7 km/h 6.4 km/h 95% 1.0 mm 11 W/m2
09:49 1.3 °C 0.6 °C 1001.7 hPa ENE 1.4 km/h 4.8 km/h 95% 1.0 mm 18 W/m2
09:54 1.3 °C 0.6 °C 1001.7 hPa Calm   4.8 km/h 95% 1.3 mm 19 W/m2
09:59 1.3 °C 0.6 °C 1001.7 hPa ESE 1.4 km/h 6.4 km/h 95% 1.0 mm 26 W/m2
10:04 1.3 °C 0.6 °C 1001.7 hPa NE 4.7 km/h 8 km/h 95% 1.3 mm 30 W/m2
10:09 1.4 °C 0.7 °C 1001.7 hPa NE 3.2 km/h 4.8 km/h 95% 1.0 mm 21 W/m2
10:14 1.4 °C 0.7 °C 1001.7 hPa NNE 1.4 km/h 3.2 km/h 95% 1.0 mm 25 W/m2
10:19 1.5 °C 0.9 °C 1001.7 hPa North 1.4 km/h 3.2 km/h 96% 1.0 mm 26 W/m2
10:24 1.6 °C 1 °C 1001.7 hPa NE 4.7 km/h 4.8 km/h 96% 1.0 mm 25 W/m2
10:29 1.7 °C 1.1 °C 1001.7 hPa NE 6.4 km/h 6.4 km/h 96% 0.8 mm 25 W/m2
10:34 1.8 °C 1.2 °C 1001.7 hPa NE 1.4 km/h 6.4 km/h 96% 0.8 mm 30 W/m2
10:39 1.9 °C 1.3 °C 1001.7 hPa NNW 3.2 km/h 4.8 km/h 96% 0.5 mm 33 W/m2
10:44 2.1 °C 1.5 °C 1001.7 hPa NNE 3.2 km/h 4.8 km/h 96% 0.5 mm 28 W/m2
10:49 2.2 °C 1.6 °C 1001.7 hPa NW 3.2 km/h 4.8 km/h 96% 0.5 mm 21 W/m2
10:54 2.3 °C 1.7 °C 1001.7 hPa ENE 3.2 km/h 4.8 km/h 96% 0.2 mm 25 W/m2
10:59 2.3 °C 1.6 °C 1001.7 hPa NNE 1.4 km/h 4.8 km/h 95% 0.2 mm 42 W/m2
11:04 2.4 °C 1.7 °C 1001.7 hPa North 1.4 km/h 4.8 km/h 95% 0.0 mm 33 W/m2
11:09 2.5 °C 1.8 °C 1001.7 hPa NE 6.4 km/h 6.4 km/h 95% 0.0 mm 30 W/m2
11:14 2.6 °C 1.9 °C 1001.4 hPa NE 3.2 km/h 9.7 km/h 95% 0.0 mm 58 W/m2
11:19 2.7 °C 2 °C 1001.4 hPa NNE 1.4 km/h 6.4 km/h 95% 0.0 mm 58 W/m2
11:24 2.8 °C 2.1 °C 1001.4 hPa NE 3.2 km/h 9.7 km/h 95% 0.0 mm 58 W/m2
11:29 2.8 °C 2.1 °C 1001.4 hPa North 1.4 km/h 4.8 km/h 95% 0.0 mm 54 W/m2
11:35 2.9 °C 2.2 °C 1001.4 hPa North 4.7 km/h 4.8 km/h 95% 0.0 mm 51 W/m2
11:40 3 °C 2.3 °C 1001.4 hPa NNW 3.2 km/h 3.2 km/h 95% 0.0 mm 46 W/m2
11:45 3.1 °C 2.4 °C 1001.4 hPa NW 1.4 km/h 6.4 km/h 95% 0.0 mm 35 W/m2
11:50 3.1 °C 2.2 °C 1001.4 hPa ENE 1.4 km/h 4.8 km/h 94% 0.0 mm 30 W/m2
11:55 3.1 °C 2.2 °C 1001.4 hPa ENE 1.4 km/h 6.4 km/h 94% 0.0 mm 28 W/m2
12:00 3.1 °C 2.2 °C 1001.4 hPa North 4.7 km/h 6.4 km/h 94% 0.0 mm 40 W/m2
12:05 3.1 °C 2.2 °C 1001.4 hPa NNE 3.2 km/h 3.2 km/h 94% 0.0 mm 42 W/m2
12:10 3.2 °C 2.5 °C 1001.4 hPa NE 3.2 km/h 3.2 km/h 95% 0.0 mm 28 W/m2
12:15 3.2 °C 2.5 °C 1001.0 hPa ENE 3.2 km/h 3.2 km/h 95% 0.0 mm 44 W/m2
12:20 3.2 °C 2.5 °C 1001.0 hPa North 3.2 km/h 4.8 km/h 95% 0.0 mm 63 W/m2
12:25 3.3 °C 2.6 °C 1001.0 hPa Calm   6.4 km/h 95% 0.0 mm 54 W/m2
12:30 3.3 °C 2.6 °C 1001.0 hPa NE 3.2 km/h 6.4 km/h 95% 0.0 mm 63 W/m2
12:35 3.4 °C 2.7 °C 1001.0 hPa NNE 3.2 km/h 3.2 km/h 95% 0.0 mm 69 W/m2
12:40 3.4 °C 2.7 °C 1000.7 hPa NE 7.9 km/h 8 km/h 95% 0.0 mm 90 W/m2
12:45 3.6 °C 2.9 °C 1000.7 hPa NNE 1.4 km/h 4.8 km/h 95% 0.0 mm 56 W/m2
12:50 3.6 °C 2.9 °C 1000.7 hPa ENE 1.4 km/h 4.8 km/h 95% 0.0 mm 46 W/m2
12:55 3.6 °C 2.9 °C 1000.7 hPa NNW 3.2 km/h 4.8 km/h 95% 0.0 mm 33 W/m2
13:00 3.7 °C 2.8 °C 1000.7 hPa NE 1.4 km/h 3.2 km/h 94% 0.0 mm 46 W/m2
13:05 3.7 °C 2.8 °C 1000.7 hPa ENE 3.2 km/h 4.8 km/h 94% 0.0 mm 49 W/m2
13:10 3.7 °C 2.8 °C 1000.7 hPa NNW 3.2 km/h 6.4 km/h 94% 0.0 mm 49 W/m2
13:15 3.8 °C 2.9 °C 1000.7 hPa NNE 1.4 km/h 3.2 km/h 94% 0.0 mm 69 W/m2
13:20 3.8 °C 2.9 °C 1000.7 hPa North 3.2 km/h 3.2 km/h 94% 0.0 mm 33 W/m2
13:25 3.9 °C 3 °C 1000.7 hPa North 1.4 km/h 6.4 km/h 94% 0.0 mm 93 W/m2
13:30 3.9 °C 3 °C 1000.7 hPa NNE 1.4 km/h 4.8 km/h 94% 0.0 mm 97 W/m2
13:35 4 °C 3.1 °C 1000.7 hPa North 4.7 km/h 6.4 km/h 94% 0.0 mm 53 W/m2
13:40 4.1 °C 3.2 °C 1000.3 hPa NNW 1.4 km/h 4.8 km/h 94% 0.0 mm 44 W/m2
13:45 4.1 °C 3.2 °C 1000.3 hPa ENE 3.2 km/h 8 km/h 94% 0.0 mm 25 W/m2
13:50 4.1 °C 3.2 °C 1000.3 hPa NE 1.4 km/h 3.2 km/h 94% 0.0 mm 21 W/m2
13:55 4.1 °C 3.1 °C 1000.3 hPa ENE 6.4 km/h 8 km/h 93% 0.0 mm 39 W/m2
14:00 4.1 °C 3.2 °C 1000.3 hPa Calm   3.2 km/h 94% 0.0 mm 42 W/m2
14:05 4.2 °C 3.3 °C 1000.3 hPa NE 3.2 km/h 6.4 km/h 94% 0.0 mm 35 W/m2
14:10 4.2 °C 3.3 °C 1000.3 hPa ENE 3.2 km/h 3.2 km/h 94% 0.0 mm 40 W/m2
14:15 4.2 °C 3.3 °C 1000.3 hPa NNE 3.2 km/h 6.4 km/h 94% 0.0 mm 40 W/m2
14:20 4.3 °C 3.4 °C 1000.3 hPa NW 1.4 km/h 1.6 km/h 94% 0.0 mm 35 W/m2
14:25 4.3 °C 3.4 °C 1000.3 hPa Calm   4.8 km/h 94% 0.0 mm 28 W/m2
14:30 4.3 °C 3.4 °C 1000.3 hPa ENE 3.2 km/h 3.2 km/h 94% 0.0 mm 23 W/m2
14:35 4.3 °C 3.3 °C 1000.3 hPa East 3.2 km/h 4.8 km/h 93% 0.0 mm 33 W/m2
14:40 4.3 °C 3.3 °C 1000.3 hPa East 3.2 km/h 9.7 km/h 93% 0.0 mm 26 W/m2
14:45 4.3 °C 3.3 °C 1000.3 hPa SSE 3.2 km/h 9.7 km/h 93% 0.0 mm 16 W/m2
14:50 4.2 °C 3.3 °C 1000.3 hPa ENE 1.4 km/h 4.8 km/h 94% 0.0 mm 12 W/m2
14:55 4.2 °C 3.3 °C 1000.3 hPa East 3.2 km/h 6.4 km/h 94% 0.0 mm 18 W/m2
15:00 4.1 °C 3.2 °C 1000.3 hPa ESE 4.7 km/h 6.4 km/h 94% 0.0 mm 19 W/m2
15:05 4.1 °C 3.2 °C 1000.3 hPa ENE 3.2 km/h 3.2 km/h 94% 0.0 mm 16 W/m2
15:10 4 °C 3.1 °C 1000.3 hPa NE 1.4 km/h 4.8 km/h 94% 0.0 mm 16 W/m2
15:15 4 °C 3.1 °C 1000.3 hPa NNE 3.2 km/h 6.4 km/h 94% 0.0 mm 12 W/m2
15:21 4 °C 3.1 °C 1000.3 hPa ENE 6.4 km/h 6.4 km/h 94% 0.0 mm 11 W/m2
15:26 4 °C 3.1 °C 1000.3 hPa ENE 3.2 km/h 4.8 km/h 94% 0.0 mm 11 W/m2
15:31 4 °C 3.1 °C 1000.7 hPa Calm   9.7 km/h 94% 0.0 mm 7 W/m2
15:36 4 °C 3.1 °C 1000.7 hPa ENE 3.2 km/h 6.4 km/h 94% 0.0 mm 7 W/m2
15:41 4 °C 3.1 °C 1000.7 hPa Calm   8 km/h 94% 0.0 mm 7 W/m2
15:46 4 °C 3.1 °C 1000.7 hPa NE 1.4 km/h 4.8 km/h 94% 0.0 mm 9 W/m2
15:51 4 °C 3.1 °C 1000.7 hPa ENE 3.2 km/h 4.8 km/h 94% 0.0 mm 9 W/m2
15:56 4 °C 3.1 °C 1000.7 hPa NW 3.2 km/h 6.4 km/h 94% 0.0 mm 9 W/m2
16:01 4 °C 3.1 °C 1000.7 hPa NE 3.2 km/h 4.8 km/h 94% 0.0 mm 9 W/m2
16:06 4 °C 3.1 °C 1000.7 hPa North 3.2 km/h 6.4 km/h 94% 0.0 mm 11 W/m2
16:11 4 °C 3.1 °C 1000.7 hPa ENE 4.7 km/h 4.8 km/h 94% 0.2 mm 9 W/m2
16:16 3.9 °C 2.9 °C 1000.7 hPa North 3.2 km/h 6.4 km/h 93% 0.2 mm 7 W/m2
16:21 3.9 °C 2.9 °C 1000.7 hPa North 1.4 km/h 3.2 km/h 93% 0.2 mm 5 W/m2
16:26 3.8 °C 2.8 °C 1001.0 hPa Calm   6.4 km/h 93% 0.2 mm 7 W/m2
16:31 3.7 °C 2.7 °C 1000.7 hPa North 6.4 km/h 6.4 km/h 93% 0.2 mm 11 W/m2
16:36 3.7 °C 2.7 °C 1000.7 hPa NE 1.4 km/h 8 km/h 93% 0.2 mm 7 W/m2
16:41 3.5 °C 2.5 °C 1001.0 hPa North 3.2 km/h 9.7 km/h 93% 0.2 mm 5 W/m2
16:46 3.3 °C 2.3 °C 1001.0 hPa NW 3.2 km/h 8 km/h 93% 0.2 mm 0 W/m2
16:51 3.3 °C 2.3 °C 1001.0 hPa North 3.2 km/h 9.7 km/h 93% 0.2 mm 0 W/m2
16:56 3.2 °C 2.2 °C 1001.0 hPa WNW 4.7 km/h 6.4 km/h 93% 0.2 mm 0 W/m2
17:01 3.2 °C 2.2 °C 1001.0 hPa NNE 4.7 km/h 9.7 km/h 93% 0.2 mm 0 W/m2
17:06 3.1 °C 2.1 °C 1001.0 hPa ENE 4.7 km/h 8 km/h 93% 0.2 mm 0 W/m2
17:11 3 °C 2 °C 1001.0 hPa NE 1.4 km/h 4.8 km/h 93% 0.0 mm 0 W/m2
17:16 2.9 °C 1.9 °C 1001.0 hPa ENE 3.2 km/h 11.3 km/h 93% 0.0 mm 0 W/m2
17:21 2.9 °C 1.9 °C 1001.0 hPa Calm   3.2 km/h 93% 0.0 mm 0 W/m2
17:26 2.8 °C 1.8 °C 1001.4 hPa Calm   3.2 km/h 93% 0.0 mm 0 W/m2
17:31 2.8 °C 1.8 °C 1001.0 hPa North 1.4 km/h 8 km/h 93% 0.0 mm 0 W/m2
17:36 2.8 °C 1.8 °C 1001.0 hPa WNW 3.2 km/h 4.8 km/h 93% 0.0 mm 0 W/m2
17:41 2.8 °C 1.8 °C 1001.0 hPa Calm   4.8 km/h 93% 0.0 mm 0 W/m2
17:46 2.7 °C 1.7 °C 1001.0 hPa SSE 3.2 km/h 3.2 km/h 93% 0.0 mm 0 W/m2
17:51 2.8 °C 1.8 °C 1001.4 hPa NNW 4.7 km/h 4.8 km/h 93% 0.0 mm 0 W/m2
17:56 2.7 °C 1.7 °C 1001.4 hPa ENE 3.2 km/h 3.2 km/h 93% 0.0 mm 0 W/m2
18:01 2.7 °C 1.7 °C 1001.4 hPa NE 1.4 km/h 6.4 km/h 93% 0.0 mm 0 W/m2
18:06 2.7 °C 1.7 °C 1001.4 hPa NE 1.4 km/h 3.2 km/h 93% 0.0 mm 0 W/m2
18:11 2.7 °C 1.7 °C 1001.4 hPa Calm   4.8 km/h 93% 0.0 mm 0 W/m2
18:16 2.7 °C 1.8 °C 1001.4 hPa Calm   1.6 km/h 94% 0.0 mm 0 W/m2
18:21 2.7 °C 1.8 °C 1001.4 hPa Calm   1.6 km/h 94% 0.0 mm 0 W/m2
18:26 2.7 °C 1.8 °C 1001.4 hPa NE 1.4 km/h 4.8 km/h 94% 0.0 mm 0 W/m2
18:31 2.7 °C 1.8 °C 1001.4 hPa ENE 6.4 km/h 6.4 km/h 94% 0.0 mm 0 W/m2
18:36 2.7 °C 1.8 °C 1001.4 hPa ENE 1.4 km/h 3.2 km/h 94% 0.0 mm 0 W/m2
18:41 2.7 °C 1.8 °C 1001.4 hPa Calm     94% 0.0 mm 0 W/m2
18:46 2.7 °C 1.8 °C 1001.4 hPa Calm     94% 0.0 mm 0 W/m2
18:51 2.7 °C 1.8 °C 1001.4 hPa NW 3.2 km/h 4.8 km/h 94% 0.0 mm 0 W/m2
18:56 2.7 °C 1.8 °C 1001.4 hPa NE 1.4 km/h 3.2 km/h 94% 0.0 mm 0 W/m2
19:01 2.6 °C 1.7 °C 1001.4 hPa Calm   1.6 km/h 94% 0.0 mm 0 W/m2
19:06 2.7 °C 1.8 °C 1001.4 hPa NE 3.2 km/h 3.2 km/h 94% 0.0 mm 0 W/m2
19:11 2.7 °C 1.8 °C 1001.4 hPa ENE 3.2 km/h 3.2 km/h 94% 0.0 mm 0 W/m2
19:16 2.7 °C 1.8 °C 1001.4 hPa East 3.2 km/h 4.8 km/h 94% 0.0 mm 0 W/m2
19:21 2.7 °C 2 °C 1001.4 hPa Calm   3.2 km/h 95% 0.0 mm 0 W/m2
19:26 2.7 °C 2 °C 1001.4 hPa East 1.4 km/h 4.8 km/h 95% 0.0 mm 0 W/m2
19:31 2.6 °C 1.9 °C 1001.7 hPa ESE 4.7 km/h 6.4 km/h 95% 0.0 mm 0 W/m2
19:36 2.6 °C 1.9 °C 1001.7 hPa Calm   1.6 km/h 95% 0.0 mm 0 W/m2
19:41 2.7 °C 2 °C 1001.7 hPa West 9.7 km/h 9.7 km/h 95% 0.0 mm 0 W/m2
19:46 2.7 °C 2 °C 1001.7 hPa West 3.2 km/h 9.7 km/h 95% 0.0 mm 0 W/m2
19:51 2.7 °C 2 °C 1001.7 hPa West 1.4 km/h 3.2 km/h 95% 0.0 mm 0 W/m2
19:56 2.7 °C 2 °C 1001.7 hPa WSW 3.2 km/h 9.7 km/h 95% 0.0 mm 0 W/m2
20:01 2.7 °C 2 °C 1001.7 hPa West 1.4 km/h 6.4 km/h 95% 0.0 mm 0 W/m2
20:06 2.7 °C 2 °C 1001.7 hPa Calm   3.2 km/h 95% 0.0 mm 0 W/m2
20:11 2.7 °C 2 °C 1002.0 hPa Calm   6.4 km/h 95% 0.0 mm 0 W/m2
20:16 2.8 °C 2.1 °C 1002.0 hPa Calm   3.2 km/h 95% 0.0 mm 0 W/m2
20:21 2.8 °C 2.1 °C 1002.0 hPa Calm   4.8 km/h 95% 0.0 mm 0 W/m2
20:26 2.8 °C 2.1 °C 1002.0 hPa WNW 1.4 km/h 3.2 km/h 95% 0.0 mm 0 W/m2
20:31 2.8 °C 2.2 °C 1002.0 hPa West 6.4 km/h 14.5 km/h 96% 0.0 mm 0 W/m2
20:36 2.8 °C 2.2 °C 1002.0 hPa West 6.4 km/h 6.4 km/h 96% 0.0 mm 0 W/m2
20:41 2.8 °C 2.2 °C 1002.4 hPa West 4.7 km/h 12.9 km/h 96% 0.0 mm 0 W/m2
20:46 2.8 °C 2.2 °C 1002.4 hPa WNW 4.7 km/h 9.7 km/h 96% 0.0 mm 0 W/m2
20:51 2.7 °C 2 °C 1002.4 hPa WSW 7.9 km/h 9.7 km/h 95% 0.0 mm 0 W/m2
20:56 2.7 °C 2 °C 1002.4 hPa West 9.7 km/h 9.7 km/h 95% 0.0 mm 0 W/m2
21:01 2.6 °C 1.9 °C 1002.4 hPa NW 4.7 km/h 11.3 km/h 95% 0.0 mm 0 W/m2
21:06 2.6 °C 1.9 °C 1002.4 hPa WNW 9.7 km/h 9.7 km/h 95% 0.0 mm 0 W/m2
21:11 2.6 °C 1.9 °C 1002.7 hPa West 1.4 km/h 6.4 km/h 95% 0.0 mm 0 W/m2
21:17 2.6 °C 1.9 °C 1002.7 hPa WNW 1.4 km/h 6.4 km/h 95% 0.0 mm 0 W/m2
21:22 2.6 °C 1.9 °C 1002.7 hPa West 1.4 km/h 6.4 km/h 95% 0.0 mm 0 W/m2
21:27 2.5 °C 1.8 °C 1002.7 hPa West 4.7 km/h 12.9 km/h 95% 0.0 mm 0 W/m2
21:32 2.5 °C 1.8 °C 1002.7 hPa West 1.4 km/h 9.7 km/h 95% 0.0 mm 0 W/m2
21:37 2.5 °C 1.8 °C 1003.0 hPa WSW 7.9 km/h 12.9 km/h 95% 0.0 mm 0 W/m2
21:42 2.5 °C 1.8 °C 1003.0 hPa WNW 1.4 km/h 6.4 km/h 95% 0.0 mm 0 W/m2
21:47 2.5 °C 1.8 °C 1003.0 hPa WNW 3.2 km/h 4.8 km/h 95% 0.0 mm 0 W/m2
21:52 2.4 °C 1.7 °C 1003.0 hPa WNW 3.2 km/h 12.9 km/h 95% 0.0 mm 0 W/m2
21:57 2.4 °C 1.7 °C 1003.0 hPa WNW 4.7 km/h 6.4 km/h 95% 0.0 mm 0 W/m2
22:02 2.4 °C 1.7 °C 1003.0 hPa WSW 1.4 km/h 12.9 km/h 95% 0.0 mm 0 W/m2
22:07 2.4 °C 1.7 °C 1003.0 hPa West 1.4 km/h 4.8 km/h 95% 0.0 mm 0 W/m2
22:12 2.3 °C 1.6 °C 1003.0 hPa WSW 9.7 km/h 9.7 km/h 95% 0.0 mm 0 W/m2
22:17 2.3 °C 1.6 °C 1003.4 hPa West 4.7 km/h 4.8 km/h 95% 0.0 mm 0 W/m2
22:22 2.3 °C 1.6 °C 1003.4 hPa West 3.2 km/h 6.4 km/h 95% 0.0 mm 0 W/m2
22:27 2.3 °C 1.6 °C 1003.4 hPa WSW 4.7 km/h 9.7 km/h 95% 0.0 mm 0 W/m2
22:32 2.3 °C 1.6 °C 1003.4 hPa West 3.2 km/h 6.4 km/h 95% 0.0 mm 0 W/m2
22:37 2.3 °C 1.6 °C 1003.4 hPa WSW 1.4 km/h 4.8 km/h 95% 0.0 mm 0 W/m2
22:42 2.2 °C 1.5 °C 1003.4 hPa WNW 1.4 km/h 9.7 km/h 95% 0.0 mm 0 W/m2
22:47 2.2 °C 1.5 °C 1003.4 hPa WNW 1.4 km/h 6.4 km/h 95% 0.0 mm 0 W/m2
22:52 2.2 °C 1.5 °C 1003.7 hPa West 3.2 km/h 9.7 km/h 95% 0.0 mm 0 W/m2
22:57 2.2 °C 1.5 °C 1003.4 hPa West 4.7 km/h 9.7 km/h 95% 0.0 mm 0 W/m2
23:02 2.2 °C 1.5 °C 1003.7 hPa WSW 11.1 km/h 14.5 km/h 95% 0.0 mm 0 W/m2
23:07 2.2 °C 1.5 °C 1003.7 hPa WNW 6.4 km/h 9.7 km/h 95% 0.0 mm 0 W/m2
23:12 2.2 °C 1.3 °C 1003.7 hPa West 4.7 km/h 14.5 km/h 94% 0.0 mm 0 W/m2
23:17 2.2 °C 1.3 °C 1003.7 hPa West 4.7 km/h 11.3 km/h 94% 0.0 mm 0 W/m2
23:22 2.2 °C 1.3 °C 1003.7 hPa West 4.7 km/h 11.3 km/h 94% 0.0 mm 0 W/m2
23:27 2.2 °C 1.3 °C 1003.7 hPa West 6.4 km/h 11.3 km/h 94% 0.0 mm 0 W/m2
23:32 2.2 °C 1.3 °C 1003.7 hPa West 1.4 km/h 11.3 km/h 94% 0.0 mm 0 W/m2
23:37 2.2 °C 1.3 °C 1003.7 hPa WSW 4.7 km/h 12.9 km/h 94% 0.0 mm 0 W/m2
23:42 2.2 °C 1.3 °C 1003.7 hPa West 9.7 km/h 9.7 km/h 94% 0.0 mm 0 W/m2
23:47 2.1 °C 1.2 °C 1003.7 hPa WNW 4.7 km/h 11.3 km/h 94% 0.0 mm 0 W/m2
23:52 2.1 °C 1.2 °C 1004.1 hPa WNW 6.4 km/h 9.7 km/h 94% 0.0 mm 0 W/m2
23:57 2.1 °C 1.2 °C 1004.1 hPa WNW 4.7 km/h 9.7 km/h 94% 0.0 mm 0 W/m2
Juneau County Weather
Compliments of Weather Underground - 4 mb